createdAt,value
2023-02-20T00:01:29.828Z,102717.75
2023-02-20T00:03:56.448Z,102715.94
2023-02-20T00:06:22.867Z,102716.56
2023-02-20T00:08:49.307Z,102710.25
2023-02-20T00:11:15.701Z,102711.06
2023-02-20T00:13:46.815Z,102714.53
2023-02-20T00:16:13.881Z,102718.84
2023-02-20T00:18:40.684Z,102721.69
2023-02-20T00:21:07.502Z,102721.50
2023-02-20T00:23:34.413Z,102714.00
2023-02-20T00:26:01.266Z,102692.75
2023-02-20T00:28:27.723Z,102695.41
2023-02-20T00:30:54.083Z,102689.25
2023-02-20T00:33:20.438Z,102690.91
2023-02-20T00:35:46.883Z,102687.88
2023-02-20T00:38:13.193Z,102677.88
2023-02-20T00:40:39.585Z,102676.03
2023-02-20T00:43:05.985Z,102675.88
2023-02-20T00:45:32.398Z,102673.22
2023-02-20T00:47:58.777Z,102665.41
2023-02-20T00:50:25.102Z,102660.09
2023-02-20T00:52:51.546Z,102647.66
2023-02-20T00:55:17.990Z,102654.97
2023-02-20T00:57:44.386Z,102643.50
2023-02-20T01:00:18.669Z,102642.50
2023-02-20T01:02:45.163Z,102630.06
2023-02-20T01:05:12.042Z,102628.41
2023-02-20T01:07:38.437Z,102622.66
2023-02-20T01:10:05.318Z,102620.78
2023-02-20T01:12:34.504Z,102604.03
2023-02-20T01:15:00.920Z,102597.88
2023-02-20T01:17:27.252Z,102580.28
2023-02-20T01:19:55.317Z,102571.69
2023-02-20T01:22:22.431Z,102585.16
2023-02-20T01:24:48.845Z,102579.00
2023-02-20T01:27:15.464Z,102575.34
2023-02-20T01:29:41.814Z,102571.03
2023-02-20T01:32:11.481Z,102575.91
2023-02-20T01:34:38.131Z,102573.25
2023-02-20T01:37:04.779Z,102575.28
2023-02-20T01:39:31.394Z,102577.31
2023-02-20T01:42:02.032Z,102574.66
2023-02-20T01:44:36.592Z,102573.19
2023-02-20T01:47:12.984Z,102574.59
2023-02-20T01:49:44.572Z,102566.63
2023-02-20T01:52:16.022Z,102563.56
2023-02-20T01:54:45.658Z,102560.28
2023-02-20T01:57:17.242Z,102571.53
2023-02-20T01:59:44.205Z,102559.53
2023-02-20T02:02:11.665Z,102571.44
2023-02-20T02:04:40.089Z,102562.63
2023-02-20T02:07:06.646Z,102557.16
2023-02-20T02:09:44.112Z,102548.59
2023-02-20T02:12:10.526Z,102546.75
2023-02-20T02:14:36.873Z,102541.72
2023-02-20T02:17:28.236Z,102535.38
2023-02-20T02:20:12.997Z,102535.81
2023-02-20T02:22:52.738Z,102527.28
2023-02-20T02:25:32.990Z,102530.38
2023-02-20T02:28:27.399Z,102526.53
2023-02-20T02:31:09.096Z,102525.31
2023-02-20T02:33:55.510Z,102525.13
2023-02-20T02:36:31.205Z,102521.44
2023-02-20T02:39:21.510Z,102514.94
2023-02-20T02:42:12.368Z,102519.69
2023-02-20T02:45:01.391Z,102502.16
2023-02-20T02:47:37.731Z,102507.91
2023-02-20T02:50:38.906Z,102499.53
2023-02-20T02:53:08.994Z,102501.81
2023-02-20T02:55:36.070Z,102502.44
2023-02-20T02:58:04.354Z,102507.38
2023-02-20T03:00:58.394Z,102504.97
2023-02-20T03:03:29.388Z,102491.72
2023-02-20T03:06:14.129Z,102498.47
2023-02-20T03:08:57.534Z,102496.44
2023-02-20T03:11:27.601Z,102495.84
2023-02-20T03:14:22.193Z,102496.28
2023-02-20T03:16:52.108Z,102505.53
2023-02-20T03:19:27.040Z,102497.97
2023-02-20T03:21:56.322Z,102495.75
2023-02-20T03:24:25.633Z,102495.34
2023-02-20T03:26:55.542Z,102494.34
2023-02-20T03:29:30.631Z,102484.31
2023-02-20T03:32:28.314Z,102485.75
2023-02-20T03:35:15.634Z,102483.56
2023-02-20T03:38:03.441Z,102470.66
2023-02-20T03:40:51.151Z,102482.13
2023-02-20T03:43:25.954Z,102476.63
2023-02-20T03:45:58.849Z,102469.22
2023-02-20T03:48:50.665Z,102470.06
2023-02-20T03:51:17.244Z,102471.50
2023-02-20T03:53:45.717Z,102474.00
2023-02-20T03:56:19.186Z,102470.09
2023-02-20T03:58:52.726Z,102468.06
2023-02-20T04:01:21.887Z,102456.22
2023-02-20T04:03:50.035Z,102457.88
2023-02-20T04:06:19.604Z,102457.66
2023-02-20T04:08:53.214Z,102452.16
2023-02-20T04:11:31.934Z,102458.09
2023-02-20T04:14:00.966Z,102453.59
2023-02-20T04:16:27.576Z,102454.84
2023-02-20T04:18:54.024Z,102451.16
2023-02-20T04:21:32.947Z,102458.94
2023-02-20T04:24:07.198Z,102461.38
2023-02-20T04:26:35.358Z,102460.19
2023-02-20T04:29:02.179Z,102448.50
2023-02-20T04:31:28.547Z,102452.81
2023-02-20T04:33:54.891Z,102456.91
2023-02-20T04:36:21.510Z,102448.53
2023-02-20T04:38:47.925Z,102445.88
2023-02-20T04:41:14.388Z,102447.53
2023-02-20T04:43:40.720Z,102449.97
2023-02-20T04:46:07.157Z,102445.25
2023-02-20T04:48:33.527Z,102453.25
2023-02-20T04:51:02.606Z,102459.00
2023-02-20T04:53:29.321Z,102451.81
2023-02-20T04:55:55.733Z,102457.13
2023-02-20T04:58:22.108Z,102443.81
2023-02-20T05:00:48.500Z,102445.06
2023-02-20T05:03:14.882Z,102456.34
2023-02-20T05:05:41.266Z,102448.34
2023-02-20T05:08:08.557Z,102449.16
2023-02-20T05:10:35.967Z,102450.00
2023-02-20T05:13:02.591Z,102452.44
2023-02-20T05:15:31.962Z,102455.97
2023-02-20T05:17:58.361Z,102447.75
2023-02-20T05:20:44.731Z,102455.56
2023-02-20T05:23:11.092Z,102446.72
2023-02-20T05:25:37.628Z,102443.03
2023-02-20T05:28:04.106Z,102440.16
2023-02-20T05:30:30.595Z,102441.81
2023-02-20T05:32:56.990Z,102445.50
2023-02-20T05:35:23.413Z,102444.28
2023-02-20T05:37:49.741Z,102441.41
2023-02-20T05:40:16.338Z,102442.03
2023-02-20T05:42:42.746Z,102446.13
2023-02-20T05:45:09.312Z,102440.81
2023-02-20T05:47:38.500Z,102433.66
2023-02-20T05:50:05.670Z,102444.31
2023-02-20T05:52:34.955Z,102433.44
2023-02-20T05:55:01.349Z,102433.03
2023-02-20T05:57:28.574Z,102437.13
2023-02-20T05:59:54.970Z,102434.25
2023-02-20T06:02:21.309Z,102435.06
2023-02-20T06:04:47.711Z,102428.72
2023-02-20T06:07:14.084Z,102424.19
2023-02-20T06:09:44.606Z,102426.06
2023-02-20T06:12:11.672Z,102432.81
2023-02-20T06:14:38.058Z,102430.16
2023-02-20T06:17:04.626Z,102436.31
2023-02-20T06:19:30.961Z,102427.91
2023-02-20T06:22:00.298Z,102429.97
2023-02-20T06:24:26.790Z,102442.25
2023-02-20T06:26:53.329Z,102450.06
2023-02-20T06:29:20.414Z,102428.72
2023-02-20T06:31:47.342Z,102434.69
2023-02-20T06:34:14.716Z,102442.06
2023-02-20T06:36:41.824Z,102424.81
2023-02-20T06:39:10.196Z,102434.25
2023-02-20T06:41:36.787Z,102437.75
2023-02-20T06:44:03.241Z,102440.41
2023-02-20T06:46:29.913Z,102431.19
2023-02-20T06:48:58.428Z,102427.72
2023-02-20T06:51:28.250Z,102427.31
2023-02-20T06:53:54.887Z,102429.75
2023-02-20T06:56:25.694Z,102424.22
2023-02-20T06:58:53.369Z,102449.84
2023-02-20T07:01:22.163Z,102440.00
2023-02-20T07:03:50.659Z,102433.66
2023-02-20T07:06:17.422Z,102444.72
2023-02-20T07:08:43.999Z,102427.72
2023-02-20T07:11:10.910Z,102442.69
2023-02-20T07:13:37.241Z,102436.50
2023-02-20T07:16:03.828Z,102442.69
2023-02-20T07:18:30.219Z,102451.31
2023-02-20T07:20:56.607Z,102444.31
2023-02-20T07:23:23.281Z,102448.41
2023-02-20T07:25:50.345Z,102453.34
2023-02-20T07:28:18.726Z,102449.66
2023-02-20T07:30:48.897Z,102444.91
2023-02-20T07:33:16.485Z,102458.88
2023-02-20T07:35:42.950Z,102447.41
2023-02-20T07:38:09.809Z,102448.81
2023-02-20T07:40:38.350Z,102449.66
2023-02-20T07:43:06.044Z,102453.75
2023-02-20T07:45:32.476Z,102455.59
2023-02-20T07:47:58.921Z,102453.53
2023-02-20T07:50:25.346Z,102448.81
2023-02-20T07:52:51.710Z,102452.91
2023-02-20T07:55:18.911Z,102454.56
2023-02-20T07:57:50.114Z,102441.84
2023-02-20T08:00:18.794Z,102441.22
2023-02-20T08:02:45.372Z,102433.22
2023-02-20T08:05:12.588Z,102444.31
2023-02-20T08:07:39.600Z,102431.56
2023-02-20T08:10:06.640Z,102433.63
2023-02-20T08:12:33.112Z,102434.03
2023-02-20T08:14:59.447Z,102434.41
2023-02-20T08:17:31.847Z,102432.97
2023-02-20T08:20:00.677Z,102428.03
2023-02-20T08:22:40.146Z,102430.28
2023-02-20T08:25:08.029Z,102436.84
2023-02-20T08:27:38.223Z,102438.06
2023-02-20T08:30:07.820Z,102433.34
2023-02-20T08:32:34.269Z,102436.00
2023-02-20T08:35:00.777Z,102441.13
2023-02-20T08:37:27.237Z,102439.47
2023-02-20T08:39:53.661Z,102420.97
2023-02-20T08:42:20.052Z,102425.28
2023-02-20T08:44:46.429Z,102435.56
2023-02-20T08:47:12.850Z,102432.66
2023-02-20T08:49:39.213Z,102426.28
2023-02-20T08:52:05.896Z,102444.38
2023-02-20T08:54:32.386Z,102425.50
2023-02-20T08:56:58.751Z,102438.84
2023-02-20T08:59:25.228Z,102437.19
2023-02-20T09:01:51.683Z,102440.25
2023-02-20T09:04:20.552Z,102438.00
2023-02-20T09:06:46.965Z,102444.75
2023-02-20T09:09:13.370Z,102431.63
2023-02-20T09:11:39.840Z,102424.25
2023-02-20T09:14:06.293Z,102429.78
2023-02-20T09:16:32.849Z,102438.84
2023-02-20T09:19:00.290Z,102441.50
2023-02-20T09:21:29.141Z,102432.44
2023-02-20T09:23:56.434Z,102430.00
2023-02-20T09:26:22.800Z,102428.16
2023-02-20T09:28:49.286Z,102437.19
2023-02-20T09:31:15.854Z,102427.09
2023-02-20T09:33:51.427Z,102425.25
2023-02-20T09:36:18.367Z,102419.53
2023-02-20T09:38:44.789Z,102428.16
2023-02-20T09:41:40.848Z,102424.00
2023-02-20T09:44:29.295Z,102428.28
2023-02-20T09:47:03.314Z,102420.09
2023-02-20T09:49:37.194Z,102418.00
2023-02-20T09:52:10.570Z,102424.56
2023-02-20T09:54:45.041Z,102421.66
2023-02-20T09:57:19.558Z,102420.88
2023-02-20T09:59:51.076Z,102414.88
2023-02-20T10:02:29.833Z,102398.44
2023-02-20T10:05:04.436Z,102414.84
2023-02-20T10:07:34.195Z,102420.56
2023-02-20T10:10:08.192Z,102426.75
2023-02-20T10:13:25.799Z,102427.13
2023-02-20T10:16:03.912Z,102427.75
2023-02-20T10:18:46.125Z,102408.00
2023-02-20T10:21:43.098Z,102414.78
2023-02-20T10:24:36.909Z,102432.03
2023-02-20T10:27:40.258Z,102432.78
2023-02-20T10:30:12.155Z,102424.56
2023-02-20T10:32:54.849Z,102432.19
2023-02-20T10:35:26.541Z,102405.69
2023-02-20T10:38:02.570Z,102397.88
2023-02-20T10:40:38.909Z,102413.31
2023-02-20T10:43:11.392Z,102423.78
2023-02-20T10:45:42.618Z,102409.16
2023-02-20T10:48:15.391Z,102396.16
2023-02-20T10:50:44.913Z,102403.94
2023-02-20T10:53:26.294Z,102410.97
2023-02-20T10:56:09.233Z,102413.66
2023-02-20T10:58:42.866Z,102405.00
2023-02-20T11:01:14.267Z,102400.91
2023-02-20T11:04:01.386Z,102414.25
2023-02-20T11:06:37.849Z,102418.75
2023-02-20T11:09:04.276Z,102410.34
2023-02-20T11:11:45.029Z,102404.78
2023-02-20T11:14:23.355Z,102413.22
2023-02-20T11:17:06.498Z,102407.28
2023-02-20T11:19:46.593Z,102390.22
2023-02-20T11:22:14.655Z,102369.03
2023-02-20T11:24:45.729Z,102390.63
2023-02-20T11:27:16.503Z,102395.38
2023-02-20T11:30:00.546Z,102390.41
2023-02-20T11:32:35.192Z,102381.16
2023-02-20T11:35:26.842Z,102389.78
2023-02-20T11:38:14.788Z,102372.31
2023-02-20T11:40:41.185Z,102376.84
2023-02-20T11:43:13.597Z,102391.59
2023-02-20T11:45:41.043Z,102401.50
2023-02-20T11:48:07.317Z,102382.78
2023-02-20T11:50:50.572Z,102379.28
2023-02-20T11:53:33.040Z,102361.41
2023-02-20T11:56:12.073Z,102384.41
2023-02-20T11:58:39.624Z,102406.59
2023-02-20T12:01:07.502Z,102409.06
2023-02-20T12:03:36.305Z,102400.22
2023-02-20T12:06:36.203Z,102387.28
2023-02-20T12:09:04.970Z,102408.69
2023-02-20T12:11:31.378Z,102413.00
2023-02-20T12:14:00.906Z,102406.59
2023-02-20T12:16:48.153Z,102392.88
2023-02-20T12:19:26.533Z,102388.94
2023-02-20T12:22:14.768Z,102393.03
2023-02-20T12:24:59.934Z,102386.63
2023-02-20T12:27:26.247Z,102392.81
2023-02-20T12:30:12.988Z,102385.19
2023-02-20T12:33:01.402Z,102376.94
2023-02-20T12:35:52.018Z,102377.09
2023-02-20T12:38:45.910Z,102364.78
2023-02-20T12:41:27.485Z,102387.78
2023-02-20T12:44:12.988Z,102380.22
2023-02-20T12:46:55.266Z,102374.44
2023-02-20T12:49:41.713Z,102363.72
2023-02-20T12:53:12.703Z,102359.38
2023-02-20T12:55:57.034Z,102348.25
2023-02-20T12:58:29.094Z,102350.00
2023-02-20T13:01:05.550Z,102353.47
2023-02-20T13:03:53.672Z,102350.13
2023-02-20T13:06:44.915Z,102348.25
2023-02-20T13:09:23.659Z,102347.16
2023-02-20T13:11:58.368Z,102355.94
2023-02-20T13:14:42.627Z,102364.16
2023-02-20T13:17:21.208Z,102357.78
2023-02-20T13:20:06.705Z,102362.56
2023-02-20T13:22:33.212Z,102348.19
2023-02-20T13:25:33.437Z,102335.03
2023-02-20T13:28:14.122Z,102335.28
2023-02-20T13:30:41.056Z,102328.41
2023-02-20T13:33:25.283Z,102326.22
2023-02-20T13:35:58.285Z,102328.28
2023-02-20T13:38:28.663Z,102305.44
2023-02-20T13:40:54.939Z,102317.97
2023-02-20T13:43:27.911Z,102325.75
2023-02-20T13:46:00.389Z,102310.09
2023-02-20T13:48:29.769Z,102312.47
2023-02-20T13:51:14.377Z,102314.91
2023-02-20T13:53:41.456Z,102321.28
2023-02-20T13:56:22.836Z,102319.09
2023-02-20T13:58:50.835Z,102318.69
2023-02-20T14:01:17.641Z,102323.59
2023-02-20T14:03:44.037Z,102312.09
2023-02-20T14:06:18.647Z,102312.38
2023-02-20T14:08:47.680Z,102305.19
2023-02-20T14:11:27.287Z,102305.19
2023-02-20T14:13:57.874Z,102297.75
2023-02-20T14:16:27.632Z,102283.19
2023-02-20T14:19:05.846Z,102283.84
2023-02-20T14:21:34.912Z,102274.03
2023-02-20T14:24:18.274Z,102264.97
2023-02-20T14:26:44.996Z,102288.84
2023-02-20T14:29:31.645Z,102288.44
2023-02-20T14:32:00.462Z,102282.28
2023-02-20T14:34:53.390Z,102283.16
2023-02-20T14:37:52.548Z,102288.16
2023-02-20T14:40:28.951Z,102288.75
2023-02-20T14:43:01.268Z,102279.09
2023-02-20T14:45:27.926Z,102281.16
2023-02-20T14:47:58.325Z,102277.44
2023-02-20T14:50:33.918Z,102276.41
2023-02-20T14:53:11.884Z,102278.28
2023-02-20T14:55:38.420Z,102282.66
2023-02-20T14:58:13.671Z,102291.47
2023-02-20T15:00:41.881Z,102293.56
2023-02-20T15:03:24.540Z,102295.84
2023-02-20T15:06:01.119Z,102298.53
2023-02-20T15:08:33.535Z,102295.63
2023-02-20T15:11:13.896Z,102294.00
2023-02-20T15:13:43.160Z,102290.75
2023-02-20T15:16:18.035Z,102300.38
2023-02-20T15:18:47.785Z,102290.56
2023-02-20T15:21:40.986Z,102276.59
2023-02-20T15:24:25.574Z,102277.88
2023-02-20T15:26:52.368Z,102274.38
2023-02-20T15:29:18.734Z,102281.34
2023-02-20T15:31:46.817Z,102278.69
2023-02-20T15:34:21.857Z,102283.22
2023-02-20T15:36:49.502Z,102281.59
2023-02-20T15:39:17.417Z,102276.47
2023-02-20T15:41:44.748Z,102283.06
2023-02-20T15:44:11.091Z,102287.59
2023-02-20T15:46:37.624Z,102290.66
2023-02-20T15:49:05.094Z,102289.84
2023-02-20T15:51:38.496Z,102290.91
2023-02-20T15:54:06.283Z,102279.59
2023-02-20T15:56:34.419Z,102294.00
2023-02-20T15:59:06.932Z,102288.66
2023-02-20T16:01:33.373Z,102297.47
2023-02-20T16:03:59.742Z,102288.44
2023-02-20T16:06:26.611Z,102287.81
2023-02-20T16:08:53.886Z,102283.75
2023-02-20T16:11:23.083Z,102277.38
2023-02-20T16:13:56.265Z,102271.41
2023-02-20T16:16:30.337Z,102289.09
2023-02-20T16:18:56.970Z,102277.78
2023-02-20T16:21:24.553Z,102269.56
2023-02-20T16:23:51.227Z,102277.00
2023-02-20T16:26:19.728Z,102274.31
2023-02-20T16:28:52.871Z,102280.47
2023-02-20T16:31:19.360Z,102287.06
2023-02-20T16:33:47.142Z,102294.06
2023-02-20T16:36:19.997Z,102288.34
2023-02-20T16:38:50.842Z,102305.78
2023-02-20T16:41:17.236Z,102288.91
2023-02-20T16:43:43.616Z,102285.06
2023-02-20T16:46:10.057Z,102280.75
2023-02-20T16:48:36.489Z,102276.22
2023-02-20T16:51:06.174Z,102288.78
2023-02-20T16:53:32.887Z,102295.38
2023-02-20T16:55:59.278Z,102296.97
2023-02-20T16:58:25.747Z,102294.53
2023-02-20T17:00:57.476Z,102297.22
2023-02-20T17:03:25.309Z,102291.88
2023-02-20T17:05:58.373Z,102288.59
2023-02-20T17:08:25.772Z,102271.75
2023-02-20T17:10:52.218Z,102281.59
2023-02-20T17:13:18.754Z,102280.81
2023-02-20T17:15:47.591Z,102275.88
2023-02-20T17:18:14.558Z,102284.13
2023-02-20T17:20:41.029Z,102287.59
2023-02-20T17:23:07.464Z,102282.50
2023-02-20T17:25:34.909Z,102276.91
2023-02-20T17:28:01.813Z,102280.44
2023-02-20T17:30:28.255Z,102287.84
2023-02-20T17:32:54.687Z,102288.63
2023-02-20T17:35:21.057Z,102294.22
2023-02-20T17:37:47.490Z,102289.47
2023-02-20T17:40:14.273Z,102295.25
2023-02-20T17:42:41.063Z,102292.41
2023-02-20T17:45:08.043Z,102299.81
2023-02-20T17:47:34.699Z,102294.69
2023-02-20T17:50:01.145Z,102296.75
2023-02-20T17:52:27.637Z,102291.63
2023-02-20T17:54:55.351Z,102294.31
2023-02-20T17:57:23.080Z,102289.16
2023-02-20T17:59:50.103Z,102286.72
2023-02-20T18:02:18.317Z,102284.69
2023-02-20T18:04:45.176Z,102278.97
2023-02-20T18:07:13.140Z,102277.75
2023-02-20T18:09:39.557Z,102279.84
2023-02-20T18:12:06.692Z,102282.13
2023-02-20T18:14:33.138Z,102283.16
2023-02-20T18:16:59.591Z,102301.84
2023-02-20T18:19:26.896Z,102292.19
2023-02-20T18:21:53.285Z,102293.03
2023-02-20T18:24:24.718Z,102285.22
2023-02-20T18:26:52.807Z,102294.25
2023-02-20T18:29:20.853Z,102293.22
2023-02-20T18:31:48.187Z,102291.38
2023-02-20T18:34:14.740Z,102288.72
2023-02-20T18:36:41.142Z,102286.84
2023-02-20T18:39:09.820Z,102283.56
2023-02-20T18:41:37.051Z,102279.06
2023-02-20T18:44:03.483Z,102283.56
2023-02-20T18:46:36.152Z,102286.88
2023-02-20T18:49:03.795Z,102277.66
2023-02-20T18:51:35.807Z,102282.19
2023-02-20T18:54:04.654Z,102277.88
2023-02-20T18:56:31.067Z,102285.09
2023-02-20T18:58:57.535Z,102270.09
2023-02-20T19:01:24.237Z,102273.81
2023-02-20T19:03:52.860Z,102275.63
2023-02-20T19:06:30.136Z,102271.13
2023-02-20T19:08:56.464Z,102265.78
2023-02-20T19:11:22.910Z,102270.09
2023-02-20T19:13:49.326Z,102277.09
2023-02-20T19:16:16.596Z,102272.31
2023-02-20T19:18:50.532Z,102290.19
2023-02-20T19:21:18.366Z,102278.50
2023-02-20T19:23:45.785Z,102279.53
2023-02-20T19:26:12.655Z,102269.66
2023-02-20T19:28:41.961Z,102273.56
2023-02-20T19:31:09.616Z,102270.09
2023-02-20T19:33:36.302Z,102272.97
2023-02-20T19:36:03.045Z,102282.84
2023-02-20T19:38:29.419Z,102273.81
2023-02-20T19:40:55.800Z,102271.94
2023-02-20T19:43:22.200Z,102266.59
2023-02-20T19:45:48.649Z,102256.97
2023-02-20T19:48:15.834Z,102266.81
2023-02-20T19:50:42.252Z,102266.00
2023-02-20T19:53:08.601Z,102268.66
2023-02-20T19:55:34.985Z,102267.84
2023-02-20T19:58:01.443Z,102266.00
2023-02-20T20:00:28.651Z,102257.97
2023-02-20T20:02:58.129Z,102262.28
2023-02-20T20:05:25.532Z,102258.81
2023-02-20T20:07:52.182Z,102255.31
2023-02-20T20:10:20.477Z,102264.97
2023-02-20T20:12:47.045Z,102252.66
2023-02-20T20:15:14.231Z,102253.47
2023-02-20T20:17:40.689Z,102252.66
2023-02-20T20:20:10.469Z,102241.78
2023-02-20T20:22:36.880Z,102260.66
2023-02-20T20:25:04.256Z,102267.63
2023-02-20T20:27:30.564Z,102247.91
2023-02-20T20:29:57.283Z,102251.41
2023-02-20T20:32:23.767Z,102245.25
2023-02-20T20:34:55.433Z,102250.59
2023-02-20T20:37:24.014Z,102251.41
2023-02-20T20:39:56.501Z,102248.75
2023-02-20T20:42:25.254Z,102245.63
2023-02-20T20:44:52.975Z,102244.81
2023-02-20T20:47:20.616Z,102240.28
2023-02-20T20:49:47.073Z,102239.50
2023-02-20T20:52:13.493Z,102242.97
2023-02-20T20:54:39.894Z,102241.94
2023-02-20T20:57:06.528Z,102233.91
2023-02-20T20:59:32.922Z,102237.63
2023-02-20T21:01:59.350Z,102236.81
2023-02-20T21:04:26.849Z,102249.13
2023-02-20T21:06:53.232Z,102247.06
2023-02-20T21:09:19.624Z,102241.72
2023-02-20T21:11:46.021Z,102249.75
2023-02-20T21:14:12.451Z,102252.19
2023-02-20T21:16:38.817Z,102238.84
2023-02-20T21:19:05.197Z,102235.38
2023-02-20T21:21:32.046Z,102239.88
2023-02-20T21:23:58.818Z,102242.53
2023-02-20T21:26:25.165Z,102229.19
2023-02-20T21:28:53.201Z,102239.66
2023-02-20T21:31:20.846Z,102219.94
2023-02-20T21:33:51.797Z,102214.63
2023-02-20T21:36:18.891Z,102216.44
2023-02-20T21:38:45.735Z,102225.28
2023-02-20T21:41:35.415Z,102210.88
2023-02-20T21:44:20.373Z,102216.44
2023-02-20T21:46:49.533Z,102219.72
2023-02-20T21:49:16.440Z,102221.38
2023-02-20T21:51:42.756Z,102219.72
2023-02-20T21:54:09.214Z,102219.50
2023-02-20T21:56:35.617Z,102215.78
2023-02-20T21:59:03.419Z,102212.94
2023-02-20T22:01:33.593Z,102225.25
2023-02-20T22:04:00.193Z,102220.72
2023-02-20T22:06:27.390Z,102221.50
2023-02-20T22:09:13.004Z,102219.69
2023-02-20T22:11:58.335Z,102214.56
2023-02-20T22:14:43.171Z,102215.13
2023-02-20T22:17:28.409Z,102223.38
2023-02-20T22:20:15.458Z,102222.34
2023-02-20T22:23:00.911Z,102224.19
2023-02-20T22:25:46.233Z,102213.31
2023-02-20T22:28:33.097Z,102220.47
2023-02-20T22:31:19.597Z,102217.00
2023-02-20T22:34:04.657Z,102221.31
2023-02-20T22:36:49.484Z,102221.50
2023-02-20T22:39:35.685Z,102224.19
2023-02-20T22:42:29.563Z,102223.38
2023-02-20T22:45:18.965Z,102226.06
2023-02-20T22:48:03.618Z,102227.69
2023-02-20T22:50:48.426Z,102220.47
2023-02-20T22:53:33.375Z,102231.16
2023-02-20T22:56:18.187Z,102226.66
2023-02-20T22:59:02.914Z,102232.19
2023-02-20T23:01:47.702Z,102233.63
2023-02-20T23:04:32.433Z,102232.81
2023-02-20T23:07:17.321Z,102230.13
2023-02-20T23:10:02.061Z,102229.53
2023-02-20T23:12:46.757Z,102227.91
2023-02-20T23:15:31.506Z,102234.06
2023-02-20T23:18:16.177Z,102227.09
2023-02-20T23:21:00.833Z,102226.06
2023-02-20T23:23:45.710Z,102230.59
2023-02-20T23:26:30.486Z,102223.59
2023-02-20T23:29:15.018Z,102227.91
2023-02-20T23:32:02.519Z,102225.25
2023-02-20T23:34:49.217Z,102239.63
2023-02-20T23:37:34.957Z,102239.63
2023-02-20T23:40:30.741Z,102236.13
2023-02-20T23:43:20.042Z,102238.00
2023-02-20T23:46:04.934Z,102238.00
2023-02-20T23:48:49.904Z,102235.31
2023-02-20T23:51:35.324Z,102236.34
2023-02-20T23:54:20.042Z,102242.28
2023-02-20T23:57:05.227Z,102241.69
2023-02-20T23:59:50.072Z,102236.34
